Gunn City, Missouri
Current Conditions -  °F | °C
As of 4:35 AM on Friday 21 Nov 2014 (Local Time) from KRCM Reporting Station
Clear Clear  
Wind Chill: 15°   Ceiling: Unl
Heat Index: 23°   Visibility: 10mi
Dew Point: 18°   Wind: 7mph
Humidity: 80%   Direction: 60°ENE
Pressure: 30.26"   Gusts: NA
Location:  38.5641°N, 94.1793°W
Report Text: KRCM 211035Z AUTO 06006KT 10SM CLR M05/M08 A3026 RMK AO2
Loading
Personal Weather Stations






























Interactive Weather Map New forecast layout! Learn more

10-Day Weather Forecast

Advertisements
Track Severe Weather on mobile